sensor_id;sensor_type;location;lat;lon;timestamp;P1;durP1;ratioP1;P2;durP2;ratioP2
12469;SDS011;36499;46.484;13.832;2024-01-11T00:00:08;9.43;;;5.10;;
12469;SDS011;36499;46.484;13.832;2024-01-11T00:02:37;7.40;;;3.90;;
12469;SDS011;36499;46.484;13.832;2024-01-11T00:05:04;8.17;;;4.40;;
12469;SDS011;36499;46.484;13.832;2024-01-11T00:07:31;7.97;;;4.50;;
12469;SDS011;36499;46.484;13.832;2024-01-11T00:09:58;6.27;;;3.50;;
12469;SDS011;36499;46.484;13.832;2024-01-11T00:12:26;7.07;;;4.00;;
12469;SDS011;36499;46.484;13.832;2024-01-11T00:14:53;10.27;;;4.80;;
12469;SDS011;36499;46.484;13.832;2024-01-11T00:17:20;6.43;;;3.87;;
12469;SDS011;36499;46.484;13.832;2024-01-11T00:19:48;8.63;;;3.63;;
12469;SDS011;36499;46.484;13.832;2024-01-11T00:22:15;7.13;;;4.33;;
12469;SDS011;36499;46.484;13.832;2024-01-11T00:24:42;6.80;;;3.80;;
12469;SDS011;36499;46.484;13.832;2024-01-11T00:27:09;8.67;;;4.30;;
12469;SDS011;36499;46.484;13.832;2024-01-11T00:29:36;8.07;;;4.03;;
12469;SDS011;36499;46.484;13.832;2024-01-11T00:32:03;7.20;;;3.50;;
12469;SDS011;36499;46.484;13.832;2024-01-11T00:34:30;5.90;;;3.63;;
12469;SDS011;36499;46.484;13.832;2024-01-11T00:36:58;8.00;;;3.93;;
12469;SDS011;36499;46.484;13.832;2024-01-11T00:39:25;6.07;;;3.93;;
12469;SDS011;36499;46.484;13.832;2024-01-11T00:41:52;5.47;;;3.63;;
12469;SDS011;36499;46.484;13.832;2024-01-11T00:44:19;5.37;;;3.73;;
12469;SDS011;36499;46.484;13.832;2024-01-11T00:46:45;7.10;;;3.77;;
12469;SDS011;36499;46.484;13.832;2024-01-11T00:49:12;5.73;;;4.03;;
12469;SDS011;36499;46.484;13.832;2024-01-11T00:51:39;6.33;;;3.93;;
12469;SDS011;36499;46.484;13.832;2024-01-11T00:54:07;6.13;;;3.90;;
12469;SDS011;36499;46.484;13.832;2024-01-11T00:56:34;11.17;;;3.70;;
12469;SDS011;36499;46.484;13.832;2024-01-11T00:59:01;7.17;;;3.77;;
12469;SDS011;36499;46.484;13.832;2024-01-11T01:01:29;6.40;;;4.00;;
12469;SDS011;36499;46.484;13.832;2024-01-11T01:03:56;5.93;;;3.83;;
12469;SDS011;36499;46.484;13.832;2024-01-11T01:06:23;5.20;;;3.67;;
12469;SDS011;36499;46.484;13.832;2024-01-11T01:08:50;5.77;;;3.60;;
12469;SDS011;36499;46.484;13.832;2024-01-11T01:11:18;7.67;;;4.63;;
12469;SDS011;36499;46.484;13.832;2024-01-11T01:13:45;11.17;;;5.30;;
12469;SDS011;36499;46.484;13.832;2024-01-11T01:16:12;15.47;;;7.40;;
12469;SDS011;36499;46.484;13.832;2024-01-11T01:18:40;9.33;;;5.63;;
12469;SDS011;36499;46.484;13.832;2024-01-11T01:21:06;10.50;;;4.77;;
12469;SDS011;36499;46.484;13.832;2024-01-11T01:23:33;7.37;;;4.00;;
12469;SDS011;36499;46.484;13.832;2024-01-11T01:26:00;7.10;;;4.40;;
12469;SDS011;36499;46.484;13.832;2024-01-11T01:28:28;7.90;;;5.03;;
12469;SDS011;36499;46.484;13.832;2024-01-11T01:30:55;7.37;;;4.40;;
12469;SDS011;36499;46.484;13.832;2024-01-11T01:33:22;7.27;;;3.90;;
12469;SDS011;36499;46.484;13.832;2024-01-11T01:35:49;10.50;;;4.50;;
12469;SDS011;36499;46.484;13.832;2024-01-11T01:38:16;6.93;;;3.63;;
12469;SDS011;36499;46.484;13.832;2024-01-11T01:40:42;7.83;;;3.47;;
12469;SDS011;36499;46.484;13.832;2024-01-11T01:43:09;6.23;;;3.60;;
12469;SDS011;36499;46.484;13.832;2024-01-11T01:45:39;7.13;;;4.07;;
12469;SDS011;36499;46.484;13.832;2024-01-11T01:48:06;7.03;;;4.07;;
12469;SDS011;36499;46.484;13.832;2024-01-11T01:50:34;5.37;;;3.30;;
12469;SDS011;36499;46.484;13.832;2024-01-11T01:53:01;5.87;;;3.97;;
12469;SDS011;36499;46.484;13.832;2024-01-11T01:55:28;6.80;;;3.90;;
12469;SDS011;36499;46.484;13.832;2024-01-11T01:57:55;7.07;;;4.03;;
12469;SDS011;36499;46.484;13.832;2024-01-11T02:00:24;5.13;;;3.50;;
12469;SDS011;36499;46.484;13.832;2024-01-11T02:02:53;5.07;;;3.23;;
12469;SDS011;36499;46.484;13.832;2024-01-11T02:05:21;6.90;;;3.87;;
12469;SDS011;36499;46.484;13.832;2024-01-11T02:07:48;5.83;;;3.53;;
12469;SDS011;36499;46.484;13.832;2024-01-11T02:10:16;7.13;;;4.10;;
12469;SDS011;36499;46.484;13.832;2024-01-11T02:12:43;8.30;;;4.23;;
12469;SDS011;36499;46.484;13.832;2024-01-11T02:15:11;7.43;;;4.30;;
12469;SDS011;36499;46.484;13.832;2024-01-11T02:17:39;8.17;;;4.60;;
12469;SDS011;36499;46.484;13.832;2024-01-11T02:20:09;7.33;;;3.70;;
12469;SDS011;36499;46.484;13.832;2024-01-11T02:22:38;5.23;;;3.50;;
12469;SDS011;36499;46.484;13.832;2024-01-11T02:25:08;6.77;;;3.93;;
12469;SDS011;36499;46.484;13.832;2024-01-11T02:27:44;6.73;;;3.93;;
12469;SDS011;36499;46.484;13.832;2024-01-11T02:30:12;7.17;;;4.27;;
12469;SDS011;36499;46.484;13.832;2024-01-11T02:32:39;9.73;;;3.97;;
12469;SDS011;36499;46.484;13.832;2024-01-11T02:35:06;5.43;;;3.20;;
12469;SDS011;36499;46.484;13.832;2024-01-11T02:37:34;6.63;;;3.60;;
12469;SDS011;36499;46.484;13.832;2024-01-11T02:40:02;6.87;;;3.60;;
12469;SDS011;36499;46.484;13.832;2024-01-11T02:42:31;7.30;;;4.13;;
12469;SDS011;36499;46.484;13.832;2024-01-11T02:44:58;5.83;;;3.83;;
12469;SDS011;36499;46.484;13.832;2024-01-11T02:47:25;6.40;;;3.63;;
12469;SDS011;36499;46.484;13.832;2024-01-11T02:49:52;4.83;;;3.40;;
12469;SDS011;36499;46.484;13.832;2024-01-11T02:52:19;4.87;;;2.87;;
12469;SDS011;36499;46.484;13.832;2024-01-11T02:54:46;6.23;;;3.30;;
12469;SDS011;36499;46.484;13.832;2024-01-11T02:57:12;5.77;;;3.53;;
12469;SDS011;36499;46.484;13.832;2024-01-11T02:59:41;6.47;;;3.83;;
12469;SDS011;36499;46.484;13.832;2024-01-11T03:02:09;10.80;;;4.33;;
12469;SDS011;36499;46.484;13.832;2024-01-11T03:04:36;6.97;;;4.13;;
12469;SDS011;36499;46.484;13.832;2024-01-11T03:07:03;6.43;;;4.00;;
12469;SDS011;36499;46.484;13.832;2024-01-11T03:09:30;5.57;;;3.53;;
12469;SDS011;36499;46.484;13.832;2024-01-11T03:11:56;5.83;;;3.57;;
12469;SDS011;36499;46.484;13.832;2024-01-11T03:14:23;8.23;;;4.33;;
12469;SDS011;36499;46.484;13.832;2024-01-11T03:16:51;6.10;;;3.70;;
12469;SDS011;36499;46.484;13.832;2024-01-11T03:19:18;6.33;;;3.60;;
12469;SDS011;36499;46.484;13.832;2024-01-11T03:21:45;7.07;;;4.23;;
12469;SDS011;36499;46.484;13.832;2024-01-11T03:24:13;6.57;;;3.80;;
12469;SDS011;36499;46.484;13.832;2024-01-11T03:26:40;9.83;;;5.27;;
12469;SDS011;36499;46.484;13.832;2024-01-11T03:29:08;6.93;;;3.90;;
12469;SDS011;36499;46.484;13.832;2024-01-11T03:31:34;8.17;;;4.27;;
12469;SDS011;36499;46.484;13.832;2024-01-11T03:34:04;8.53;;;4.37;;
12469;SDS011;36499;46.484;13.832;2024-01-11T03:36:31;7.27;;;3.77;;
12469;SDS011;36499;46.484;13.832;2024-01-11T03:38:58;9.53;;;4.50;;
12469;SDS011;36499;46.484;13.832;2024-01-11T03:41:25;6.80;;;3.90;;
12469;SDS011;36499;46.484;13.832;2024-01-11T03:43:51;5.27;;;3.70;;
12469;SDS011;36499;46.484;13.832;2024-01-11T03:46:18;7.10;;;4.37;;
12469;SDS011;36499;46.484;13.832;2024-01-11T03:48:45;7.27;;;4.03;;
12469;SDS011;36499;46.484;13.832;2024-01-11T03:51:13;8.57;;;4.20;;
12469;SDS011;36499;46.484;13.832;2024-01-11T03:53:40;8.03;;;4.60;;
12469;SDS011;36499;46.484;13.832;2024-01-11T03:56:07;8.87;;;4.20;;
12469;SDS011;36499;46.484;13.832;2024-01-11T03:58:35;7.17;;;4.53;;
12469;SDS011;36499;46.484;13.832;2024-01-11T04:01:04;8.70;;;4.97;;
12469;SDS011;36499;46.484;13.832;2024-01-11T04:03:32;10.83;;;4.73;;
12469;SDS011;36499;46.484;13.832;2024-01-11T04:05:59;9.27;;;4.83;;
12469;SDS011;36499;46.484;13.832;2024-01-11T04:08:27;9.60;;;4.57;;
12469;SDS011;36499;46.484;13.832;2024-01-11T04:10:54;8.40;;;5.00;;
12469;SDS011;36499;46.484;13.832;2024-01-11T04:13:21;8.10;;;4.53;;
12469;SDS011;36499;46.484;13.832;2024-01-11T04:15:48;6.90;;;4.10;;
12469;SDS011;36499;46.484;13.832;2024-01-11T04:18:14;6.40;;;4.20;;
12469;SDS011;36499;46.484;13.832;2024-01-11T04:20:41;6.87;;;4.50;;
12469;SDS011;36499;46.484;13.832;2024-01-11T04:23:08;9.43;;;4.80;;
12469;SDS011;36499;46.484;13.832;2024-01-11T04:25:36;5.73;;;3.73;;
12469;SDS011;36499;46.484;13.832;2024-01-11T04:28:03;7.33;;;4.20;;
12469;SDS011;36499;46.484;13.832;2024-01-11T04:30:31;5.80;;;3.60;;
12469;SDS011;36499;46.484;13.832;2024-01-11T04:32:58;6.80;;;4.13;;
12469;SDS011;36499;46.484;13.832;2024-01-11T04:35:25;5.97;;;3.90;;
12469;SDS011;36499;46.484;13.832;2024-01-11T04:37:52;8.07;;;4.50;;
12469;SDS011;36499;46.484;13.832;2024-01-11T04:40:18;8.50;;;3.90;;
12469;SDS011;36499;46.484;13.832;2024-01-11T04:42:47;6.93;;;4.23;;
12469;SDS011;36499;46.484;13.832;2024-01-11T04:45:13;5.77;;;3.97;;
12469;SDS011;36499;46.484;13.832;2024-01-11T04:47:40;7.77;;;4.40;;
12469;SDS011;36499;46.484;13.832;2024-01-11T04:50:07;10.10;;;4.47;;
12469;SDS011;36499;46.484;13.832;2024-01-11T04:52:35;6.37;;;3.83;;
12469;SDS011;36499;46.484;13.832;2024-01-11T04:55:02;6.20;;;4.13;;
12469;SDS011;36499;46.484;13.832;2024-01-11T04:57:29;6.30;;;4.20;;
12469;SDS011;36499;46.484;13.832;2024-01-11T04:59:57;7.50;;;3.97;;
12469;SDS011;36499;46.484;13.832;2024-01-11T05:02:24;6.53;;;3.93;;
12469;SDS011;36499;46.484;13.832;2024-01-11T05:04:51;8.77;;;4.10;;
12469;SDS011;36499;46.484;13.832;2024-01-11T05:07:18;8.17;;;4.87;;
12469;SDS011;36499;46.484;13.832;2024-01-11T05:09:44;6.60;;;4.13;;
12469;SDS011;36499;46.484;13.832;2024-01-11T05:12:11;12.70;;;4.33;;
12469;SDS011;36499;46.484;13.832;2024-01-11T05:14:38;6.53;;;4.40;;
12469;SDS011;36499;46.484;13.832;2024-01-11T05:17:06;6.37;;;3.70;;
12469;SDS011;36499;46.484;13.832;2024-01-11T05:19:33;6.87;;;4.40;;
12469;SDS011;36499;46.484;13.832;2024-01-11T05:22:00;7.63;;;4.03;;
12469;SDS011;36499;46.484;13.832;2024-01-11T05:24:27;8.90;;;4.40;;
12469;SDS011;36499;46.484;13.832;2024-01-11T05:26:54;7.43;;;4.60;;
12469;SDS011;36499;46.484;13.832;2024-01-11T05:29:21;8.13;;;4.67;;
12469;SDS011;36499;46.484;13.832;2024-01-11T05:31:47;8.43;;;4.57;;
12469;SDS011;36499;46.484;13.832;2024-01-11T05:34:16;6.63;;;4.53;;
12469;SDS011;36499;46.484;13.832;2024-01-11T05:36:42;7.97;;;4.00;;
12469;SDS011;36499;46.484;13.832;2024-01-11T05:39:09;7.73;;;4.43;;
12469;SDS011;36499;46.484;13.832;2024-01-11T05:41:36;8.87;;;4.40;;
12469;SDS011;36499;46.484;13.832;2024-01-11T05:44:03;7.43;;;4.50;;
12469;SDS011;36499;46.484;13.832;2024-01-11T05:46:30;6.60;;;4.40;;
12469;SDS011;36499;46.484;13.832;2024-01-11T05:48:57;7.73;;;5.40;;
12469;SDS011;36499;46.484;13.832;2024-01-11T05:51:25;8.33;;;4.77;;
12469;SDS011;36499;46.484;13.832;2024-01-11T05:53:52;7.57;;;4.80;;
12469;SDS011;36499;46.484;13.832;2024-01-11T05:56:19;10.67;;;5.03;;
12469;SDS011;36499;46.484;13.832;2024-01-11T05:58:46;8.80;;;5.00;;
12469;SDS011;36499;46.484;13.832;2024-01-11T06:01:13;7.87;;;4.37;;
12469;SDS011;36499;46.484;13.832;2024-01-11T06:03:40;7.67;;;4.37;;
12469;SDS011;36499;46.484;13.832;2024-01-11T06:06:07;8.90;;;5.00;;
12469;SDS011;36499;46.484;13.832;2024-01-11T06:08:35;10.10;;;5.00;;
12469;SDS011;36499;46.484;13.832;2024-01-11T06:11:02;9.63;;;4.97;;
12469;SDS011;36499;46.484;13.832;2024-01-11T06:13:29;9.10;;;4.60;;
12469;SDS011;36499;46.484;13.832;2024-01-11T06:15:56;10.50;;;5.00;;
12469;SDS011;36499;46.484;13.832;2024-01-11T06:18:23;9.53;;;4.83;;
12469;SDS011;36499;46.484;13.832;2024-01-11T06:20:50;10.07;;;5.23;;
12469;SDS011;36499;46.484;13.832;2024-01-11T06:23:17;11.93;;;5.07;;
12469;SDS011;36499;46.484;13.832;2024-01-11T06:25:46;8.70;;;4.97;;
12469;SDS011;36499;46.484;13.832;2024-01-11T06:28:12;8.30;;;4.80;;
12469;SDS011;36499;46.484;13.832;2024-01-11T06:30:39;8.57;;;4.63;;
12469;SDS011;36499;46.484;13.832;2024-01-11T06:33:08;10.17;;;5.13;;
12469;SDS011;36499;46.484;13.832;2024-01-11T06:35:34;8.77;;;4.93;;
12469;SDS011;36499;46.484;13.832;2024-01-11T06:38:01;10.27;;;4.83;;
12469;SDS011;36499;46.484;13.832;2024-01-11T06:40:28;9.23;;;5.37;;
12469;SDS011;36499;46.484;13.832;2024-01-11T06:42:57;9.77;;;5.50;;
12469;SDS011;36499;46.484;13.832;2024-01-11T06:45:23;10.23;;;5.80;;
12469;SDS011;36499;46.484;13.832;2024-01-11T06:47:50;7.93;;;5.43;;
12469;SDS011;36499;46.484;13.832;2024-01-11T06:50:17;10.23;;;5.60;;
12469;SDS011;36499;46.484;13.832;2024-01-11T06:52:44;11.90;;;5.10;;
12469;SDS011;36499;46.484;13.832;2024-01-11T06:55:11;7.93;;;4.77;;
12469;SDS011;36499;46.484;13.832;2024-01-11T06:57:37;12.53;;;5.50;;
12469;SDS011;36499;46.484;13.832;2024-01-11T07:00:06;8.73;;;5.57;;
12469;SDS011;36499;46.484;13.832;2024-01-11T07:02:34;8.80;;;5.60;;
12469;SDS011;36499;46.484;13.832;2024-01-11T07:05:01;9.00;;;5.47;;
12469;SDS011;36499;46.484;13.832;2024-01-11T07:07:28;8.40;;;5.13;;
12469;SDS011;36499;46.484;13.832;2024-01-11T07:09:55;9.13;;;5.20;;
12469;SDS011;36499;46.484;13.832;2024-01-11T07:12:22;9.10;;;5.13;;
12469;SDS011;36499;46.484;13.832;2024-01-11T07:14:49;13.77;;;5.80;;
12469;SDS011;36499;46.484;13.832;2024-01-11T07:17:17;11.03;;;5.23;;
12469;SDS011;36499;46.484;13.832;2024-01-11T07:19:44;7.67;;;5.23;;
12469;SDS011;36499;46.484;13.832;2024-01-11T07:22:11;10.60;;;5.67;;
12469;SDS011;36499;46.484;13.832;2024-01-11T07:24:37;9.23;;;5.20;;
12469;SDS011;36499;46.484;13.832;2024-01-11T07:27:04;11.83;;;6.10;;
12469;SDS011;36499;46.484;13.832;2024-01-11T07:29:32;9.77;;;5.80;;
12469;SDS011;36499;46.484;13.832;2024-01-11T07:32:00;11.60;;;5.73;;
12469;SDS011;36499;46.484;13.832;2024-01-11T07:34:30;10.20;;;5.70;;
12469;SDS011;36499;46.484;13.832;2024-01-11T07:36:57;9.60;;;5.67;;
12469;SDS011;36499;46.484;13.832;2024-01-11T07:39:24;10.07;;;5.33;;
12469;SDS011;36499;46.484;13.832;2024-01-11T07:41:51;11.43;;;5.10;;
12469;SDS011;36499;46.484;13.832;2024-01-11T07:44:18;10.20;;;5.10;;
12469;SDS011;36499;46.484;13.832;2024-01-11T07:46:45;10.27;;;5.80;;
12469;SDS011;36499;46.484;13.832;2024-01-11T07:49:12;10.20;;;5.00;;
12469;SDS011;36499;46.484;13.832;2024-01-11T07:51:40;7.30;;;4.53;;
12469;SDS011;36499;46.484;13.832;2024-01-11T07:54:07;9.90;;;5.07;;
12469;SDS011;36499;46.484;13.832;2024-01-11T07:56:34;9.03;;;5.10;;
12469;SDS011;36499;46.484;13.832;2024-01-11T07:59:01;9.00;;;5.07;;
12469;SDS011;36499;46.484;13.832;2024-01-11T08:01:28;8.53;;;4.77;;
12469;SDS011;36499;46.484;13.832;2024-01-11T08:03:54;9.97;;;4.27;;
12469;SDS011;36499;46.484;13.832;2024-01-11T08:06:21;7.57;;;4.60;;
12469;SDS011;36499;46.484;13.832;2024-01-11T08:08:50;9.87;;;5.33;;
12469;SDS011;36499;46.484;13.832;2024-01-11T08:11:17;10.73;;;5.33;;
12469;SDS011;36499;46.484;13.832;2024-01-11T08:13:45;8.70;;;5.30;;
12469;SDS011;36499;46.484;13.832;2024-01-11T08:16:14;10.80;;;5.10;;
12469;SDS011;36499;46.484;13.832;2024-01-11T08:18:42;11.03;;;5.63;;
12469;SDS011;36499;46.484;13.832;2024-01-11T08:21:10;10.87;;;5.93;;
12469;SDS011;36499;46.484;13.832;2024-01-11T08:23:39;11.40;;;6.00;;
12469;SDS011;36499;46.484;13.832;2024-01-11T08:26:10;10.80;;;5.63;;
12469;SDS011;36499;46.484;13.832;2024-01-11T08:28:37;9.37;;;5.53;;
12469;SDS011;36499;46.484;13.832;2024-01-11T08:31:05;10.03;;;5.60;;
12469;SDS011;36499;46.484;13.832;2024-01-11T08:33:32;9.43;;;4.97;;
12469;SDS011;36499;46.484;13.832;2024-01-11T08:35:59;11.07;;;5.83;;
12469;SDS011;36499;46.484;13.832;2024-01-11T08:38:26;11.73;;;5.93;;
12469;SDS011;36499;46.484;13.832;2024-01-11T08:40:54;9.83;;;5.50;;
12469;SDS011;36499;46.484;13.832;2024-01-11T08:43:22;10.33;;;6.17;;
12469;SDS011;36499;46.484;13.832;2024-01-11T08:45:49;11.33;;;5.97;;
12469;SDS011;36499;46.484;13.832;2024-01-11T08:48:16;9.93;;;5.57;;
12469;SDS011;36499;46.484;13.832;2024-01-11T08:50:43;8.73;;;5.13;;
12469;SDS011;36499;46.484;13.832;2024-01-11T08:53:09;9.60;;;5.43;;
12469;SDS011;36499;46.484;13.832;2024-01-11T08:55:36;11.63;;;5.80;;
12469;SDS011;36499;46.484;13.832;2024-01-11T08:58:03;9.97;;;6.00;;
12469;SDS011;36499;46.484;13.832;2024-01-11T09:00:31;8.70;;;5.07;;
12469;SDS011;36499;46.484;13.832;2024-01-11T09:02:58;10.97;;;5.17;;
12469;SDS011;36499;46.484;13.832;2024-01-11T09:05:25;9.13;;;5.23;;
12469;SDS011;36499;46.484;13.832;2024-01-11T09:07:52;8.90;;;5.30;;
12469;SDS011;36499;46.484;13.832;2024-01-11T09:10:19;7.50;;;5.17;;
12469;SDS011;36499;46.484;13.832;2024-01-11T09:12:46;26.43;;;11.93;;
12469;SDS011;36499;46.484;13.832;2024-01-11T09:15:12;26.23;;;10.27;;
12469;SDS011;36499;46.484;13.832;2024-01-11T09:17:40;33.40;;;12.53;;
12469;SDS011;36499;46.484;13.832;2024-01-11T09:20:07;10.20;;;5.47;;
12469;SDS011;36499;46.484;13.832;2024-01-11T09:22:39;16.00;;;7.80;;
12469;SDS011;36499;46.484;13.832;2024-01-11T09:25:06;8.37;;;4.60;;
12469;SDS011;36499;46.484;13.832;2024-01-11T09:27:33;16.07;;;5.50;;
12469;SDS011;36499;46.484;13.832;2024-01-11T09:30:00;8.30;;;5.17;;
12469;SDS011;36499;46.484;13.832;2024-01-11T09:32:27;12.60;;;6.33;;
12469;SDS011;36499;46.484;13.832;2024-01-11T09:34:57;11.80;;;5.33;;
12469;SDS011;36499;46.484;13.832;2024-01-11T09:37:24;14.73;;;7.90;;
12469;SDS011;36499;46.484;13.832;2024-01-11T09:39:51;12.73;;;7.20;;
12469;SDS011;36499;46.484;13.832;2024-01-11T09:42:17;8.10;;;4.80;;
12469;SDS011;36499;46.484;13.832;2024-01-11T09:44:44;7.50;;;4.73;;
12469;SDS011;36499;46.484;13.832;2024-01-11T09:47:13;10.23;;;4.77;;
12469;SDS011;36499;46.484;13.832;2024-01-11T09:49:43;7.40;;;4.47;;
12469;SDS011;36499;46.484;13.832;2024-01-11T09:52:12;8.53;;;4.90;;
12469;SDS011;36499;46.484;13.832;2024-01-11T09:54:42;7.07;;;4.97;;
12469;SDS011;36499;46.484;13.832;2024-01-11T09:57:09;10.43;;;4.40;;
12469;SDS011;36499;46.484;13.832;2024-01-11T09:59:36;8.07;;;4.40;;
12469;SDS011;36499;46.484;13.832;2024-01-11T10:02:03;10.23;;;4.23;;
12469;SDS011;36499;46.484;13.832;2024-01-11T10:04:33;10.37;;;6.13;;
12469;SDS011;36499;46.484;13.832;2024-01-11T10:07:00;10.23;;;5.27;;
12469;SDS011;36499;46.484;13.832;2024-01-11T10:09:32;8.37;;;5.17;;
12469;SDS011;36499;46.484;13.832;2024-01-11T10:11:59;5.20;;;3.60;;
12469;SDS011;36499;46.484;13.832;2024-01-11T10:14:26;5.50;;;3.90;;
12469;SDS011;36499;46.484;13.832;2024-01-11T10:16:53;6.43;;;4.97;;
12469;SDS011;36499;46.484;13.832;2024-01-11T10:19:20;7.37;;;5.10;;
12469;SDS011;36499;46.484;13.832;2024-01-11T10:21:47;7.17;;;5.07;;
12469;SDS011;36499;46.484;13.832;2024-01-11T10:24:17;13.47;;;7.20;;
12469;SDS011;36499;46.484;13.832;2024-01-11T10:26:47;4.00;;;2.90;;
12469;SDS011;36499;46.484;13.832;2024-01-11T10:29:13;5.80;;;3.60;;
12469;SDS011;36499;46.484;13.832;2024-01-11T10:31:40;4.30;;;3.03;;
12469;SDS011;36499;46.484;13.832;2024-01-11T10:34:07;8.20;;;3.43;;
12469;SDS011;36499;46.484;13.832;2024-01-11T10:36:34;5.87;;;3.63;;
12469;SDS011;36499;46.484;13.832;2024-01-11T10:39:02;4.80;;;3.00;;
12469;SDS011;36499;46.484;13.832;2024-01-11T10:41:32;5.67;;;3.80;;
12469;SDS011;36499;46.484;13.832;2024-01-11T10:44:07;6.63;;;3.33;;
12469;SDS011;36499;46.484;13.832;2024-01-11T10:46:44;5.17;;;3.40;;
12469;SDS011;36499;46.484;13.832;2024-01-11T10:49:13;6.93;;;3.60;;
12469;SDS011;36499;46.484;13.832;2024-01-11T10:51:43;5.10;;;3.30;;
12469;SDS011;36499;46.484;13.832;2024-01-11T10:54:16;5.93;;;2.97;;
12469;SDS011;36499;46.484;13.832;2024-01-11T10:56:44;4.90;;;2.90;;
12469;SDS011;36499;46.484;13.832;2024-01-11T10:59:14;5.83;;;2.80;;
12469;SDS011;36499;46.484;13.832;2024-01-11T11:01:43;3.53;;;2.53;;
12469;SDS011;36499;46.484;13.832;2024-01-11T11:04:11;4.57;;;2.80;;
12469;SDS011;36499;46.484;13.832;2024-01-11T11:06:41;4.30;;;2.30;;
12469;SDS011;36499;46.484;13.832;2024-01-11T11:09:10;6.67;;;2.50;;
12469;SDS011;36499;46.484;13.832;2024-01-11T11:11:40;3.27;;;2.10;;
12469;SDS011;36499;46.484;13.832;2024-01-11T11:14:07;7.20;;;2.40;;
12469;SDS011;36499;46.484;13.832;2024-01-11T11:16:37;3.90;;;2.67;;
12469;SDS011;36499;46.484;13.832;2024-01-11T11:19:03;4.43;;;2.20;;
12469;SDS011;36499;46.484;13.832;2024-01-11T11:21:30;3.80;;;2.30;;
12469;SDS011;36499;46.484;13.832;2024-01-11T11:23:57;3.30;;;2.20;;
12469;SDS011;36499;46.484;13.832;2024-01-11T11:26:25;3.27;;;2.20;;
12469;SDS011;36499;46.484;13.832;2024-01-11T11:28:53;2.33;;;1.70;;
12469;SDS011;36499;46.484;13.832;2024-01-11T11:34:04;2.17;;;1.70;;
12469;SDS011;36499;46.484;13.832;2024-01-11T11:36:32;2.67;;;1.57;;
12469;SDS011;36499;46.484;13.832;2024-01-11T11:38:59;2.27;;;1.70;;
12469;SDS011;36499;46.484;13.832;2024-01-11T11:41:28;2.57;;;1.70;;
12469;SDS011;36499;46.484;13.832;2024-01-11T11:44:00;3.37;;;1.77;;
12469;SDS011;36499;46.484;13.832;2024-01-11T11:46:27;2.10;;;1.63;;
12469;SDS011;36499;46.484;13.832;2024-01-11T11:48:57;4.70;;;1.40;;
12469;SDS011;36499;46.484;13.832;2024-01-11T11:51:25;1.33;;;1.20;;
12469;SDS011;36499;46.484;13.832;2024-01-11T11:53:53;3.37;;;1.43;;
12469;SDS011;36499;46.484;13.832;2024-01-11T11:56:20;2.93;;;1.63;;
12469;SDS011;36499;46.484;13.832;2024-01-11T11:58:48;3.73;;;1.60;;
12469;SDS011;36499;46.484;13.832;2024-01-11T12:01:17;3.23;;;1.80;;
12469;SDS011;36499;46.484;13.832;2024-01-11T12:03:44;1.80;;;1.40;;
12469;SDS011;36499;46.484;13.832;2024-01-11T12:06:15;3.10;;;1.77;;
12469;SDS011;36499;46.484;13.832;2024-01-11T12:08:43;2.30;;;1.33;;
12469;SDS011;36499;46.484;13.832;2024-01-11T12:11:13;1.80;;;1.60;;
12469;SDS011;36499;46.484;13.832;2024-01-11T12:13:40;2.23;;;1.70;;
12469;SDS011;36499;46.484;13.832;2024-01-11T12:16:09;2.03;;;1.43;;
12469;SDS011;36499;46.484;13.832;2024-01-11T12:18:36;1.60;;;1.47;;
12469;SDS011;36499;46.484;13.832;2024-01-11T12:21:03;3.03;;;1.60;;
12469;SDS011;36499;46.484;13.832;2024-01-11T12:23:32;3.80;;;1.70;;
12469;SDS011;36499;46.484;13.832;2024-01-11T12:26:00;1.33;;;1.07;;
12469;SDS011;36499;46.484;13.832;2024-01-11T12:28:29;1.37;;;1.00;;
12469;SDS011;36499;46.484;13.832;2024-01-11T12:30:57;1.37;;;1.00;;
12469;SDS011;36499;46.484;13.832;2024-01-11T12:33:24;1.90;;;1.23;;
12469;SDS011;36499;46.484;13.832;2024-01-11T12:35:52;2.00;;;1.37;;
12469;SDS011;36499;46.484;13.832;2024-01-11T12:38:19;1.40;;;1.10;;
12469;SDS011;36499;46.484;13.832;2024-01-11T12:40:47;0.90;;;0.57;;
12469;SDS011;36499;46.484;13.832;2024-01-11T12:43:14;0.60;;;0.50;;
12469;SDS011;36499;46.484;13.832;2024-01-11T12:45:42;1.93;;;0.87;;
12469;SDS011;36499;46.484;13.832;2024-01-11T12:48:09;1.63;;;1.23;;
12469;SDS011;36499;46.484;13.832;2024-01-11T12:50:39;1.43;;;1.23;;
12469;SDS011;36499;46.484;13.832;2024-01-11T12:53:07;2.77;;;1.50;;
12469;SDS011;36499;46.484;13.832;2024-01-11T12:55:35;1.97;;;1.10;;
12469;SDS011;36499;46.484;13.832;2024-01-11T12:58:07;3.37;;;1.53;;
12469;SDS011;36499;46.484;13.832;2024-01-11T13:00:34;3.10;;;1.00;;
12469;SDS011;36499;46.484;13.832;2024-01-11T13:03:02;1.33;;;1.07;;
12469;SDS011;36499;46.484;13.832;2024-01-11T13:05:30;1.17;;;1.00;;
12469;SDS011;36499;46.484;13.832;2024-01-11T13:08:00;2.20;;;1.20;;
12469;SDS011;36499;46.484;13.832;2024-01-11T13:10:28;1.97;;;1.40;;
12469;SDS011;36499;46.484;13.832;2024-01-11T13:12:58;0.90;;;0.90;;
12469;SDS011;36499;46.484;13.832;2024-01-11T13:15:26;0.63;;;0.40;;
12469;SDS011;36499;46.484;13.832;2024-01-11T13:17:54;0.40;;;0.40;;
12469;SDS011;36499;46.484;13.832;2024-01-11T13:20:21;0.40;;;0.40;;
12469;SDS011;36499;46.484;13.832;2024-01-11T13:22:49;0.37;;;0.37;;
12469;SDS011;36499;46.484;13.832;2024-01-11T13:25:16;0.37;;;0.30;;
12469;SDS011;36499;46.484;13.832;2024-01-11T13:27:43;0.50;;;0.50;;
12469;SDS011;36499;46.484;13.832;2024-01-11T13:30:10;0.67;;;0.63;;
12469;SDS011;36499;46.484;13.832;2024-01-11T13:32:40;8.27;;;4.27;;
12469;SDS011;36499;46.484;13.832;2024-01-11T13:35:07;14.17;;;6.70;;
12469;SDS011;36499;46.484;13.832;2024-01-11T13:37:34;6.77;;;3.47;;
12469;SDS011;36499;46.484;13.832;2024-01-11T13:40:01;4.47;;;2.53;;
12469;SDS011;36499;46.484;13.832;2024-01-11T13:42:28;4.67;;;2.67;;
12469;SDS011;36499;46.484;13.832;2024-01-11T13:44:55;6.27;;;4.10;;
12469;SDS011;36499;46.484;13.832;2024-01-11T13:47:22;7.17;;;4.60;;
12469;SDS011;36499;46.484;13.832;2024-01-11T13:49:50;7.57;;;5.70;;
12469;SDS011;36499;46.484;13.832;2024-01-11T13:52:17;8.97;;;5.50;;
12469;SDS011;36499;46.484;13.832;2024-01-11T13:54:44;6.40;;;3.73;;
12469;SDS011;36499;46.484;13.832;2024-01-11T13:57:11;4.63;;;3.37;;
12469;SDS011;36499;46.484;13.832;2024-01-11T13:59:38;5.83;;;3.10;;
12469;SDS011;36499;46.484;13.832;2024-01-11T14:02:05;3.97;;;2.50;;
12469;SDS011;36499;46.484;13.832;2024-01-11T14:04:32;3.00;;;2.40;;
12469;SDS011;36499;46.484;13.832;2024-01-11T14:07:00;3.23;;;2.30;;
12469;SDS011;36499;46.484;13.832;2024-01-11T14:09:28;5.50;;;3.50;;
12469;SDS011;36499;46.484;13.832;2024-01-11T14:11:55;4.70;;;3.17;;
12469;SDS011;36499;46.484;13.832;2024-01-11T14:14:22;4.97;;;2.97;;
12469;SDS011;36499;46.484;13.832;2024-01-11T14:16:48;5.27;;;2.80;;
12469;SDS011;36499;46.484;13.832;2024-01-11T14:19:16;4.77;;;3.00;;
12469;SDS011;36499;46.484;13.832;2024-01-11T14:21:43;5.43;;;3.00;;
12469;SDS011;36499;46.484;13.832;2024-01-11T14:24:11;2.87;;;1.93;;
12469;SDS011;36499;46.484;13.832;2024-01-11T14:26:39;1.73;;;1.40;;
12469;SDS011;36499;46.484;13.832;2024-01-11T14:29:05;3.43;;;2.23;;
12469;SDS011;36499;46.484;13.832;2024-01-11T14:31:32;3.27;;;2.10;;
12469;SDS011;36499;46.484;13.832;2024-01-11T14:34:00;3.50;;;2.17;;
12469;SDS011;36499;46.484;13.832;2024-01-11T14:36:26;2.30;;;1.70;;